sensor_id;sensor_type;location;lat;lon;timestamp;P1;durP1;ratioP1;P2;durP2;ratioP2
71606;SDS011;60641;53.556;9.914;2024-02-14T00:02:25;6.10;;;1.90;;
71606;SDS011;60641;53.556;9.914;2024-02-14T00:04:55;8.10;;;2.10;;
71606;SDS011;60641;53.556;9.914;2024-02-14T00:07:21;7.80;;;2.20;;
71606;SDS011;60641;53.556;9.914;2024-02-14T00:09:48;8.40;;;2.30;;
71606;SDS011;60641;53.556;9.914;2024-02-14T00:12:14;8.40;;;2.40;;
71606;SDS011;60641;53.556;9.914;2024-02-14T00:14:41;7.00;;;2.30;;
71606;SDS011;60641;53.556;9.914;2024-02-14T00:17:08;8.40;;;2.00;;
71606;SDS011;60641;53.556;9.914;2024-02-14T00:19:36;8.70;;;1.80;;
71606;SDS011;60641;53.556;9.914;2024-02-14T00:22:03;10.30;;;1.90;;
71606;SDS011;60641;53.556;9.914;2024-02-14T00:24:29;8.40;;;1.90;;
71606;SDS011;60641;53.556;9.914;2024-02-14T00:26:57;6.60;;;1.90;;
71606;SDS011;60641;53.556;9.914;2024-02-14T00:29:23;9.40;;;2.60;;
71606;SDS011;60641;53.556;9.914;2024-02-14T00:31:50;9.20;;;2.10;;
71606;SDS011;60641;53.556;9.914;2024-02-14T00:34:16;7.70;;;2.10;;
71606;SDS011;60641;53.556;9.914;2024-02-14T00:36:43;7.70;;;2.20;;
71606;SDS011;60641;53.556;9.914;2024-02-14T00:39:09;7.80;;;2.20;;
71606;SDS011;60641;53.556;9.914;2024-02-14T00:41:36;8.00;;;2.00;;
71606;SDS011;60641;53.556;9.914;2024-02-14T00:44:03;8.20;;;2.20;;
71606;SDS011;60641;53.556;9.914;2024-02-14T00:46:29;11.90;;;2.30;;
71606;SDS011;60641;53.556;9.914;2024-02-14T00:48:56;8.50;;;2.00;;
71606;SDS011;60641;53.556;9.914;2024-02-14T00:51:22;8.10;;;1.70;;
71606;SDS011;60641;53.556;9.914;2024-02-14T00:53:49;6.90;;;2.30;;
71606;SDS011;60641;53.556;9.914;2024-02-14T00:56:15;8.50;;;2.10;;
71606;SDS011;60641;53.556;9.914;2024-02-14T00:58:41;9.30;;;1.90;;
71606;SDS011;60641;53.556;9.914;2024-02-14T01:01:08;7.00;;;1.90;;
71606;SDS011;60641;53.556;9.914;2024-02-14T01:03:34;7.60;;;2.30;;
71606;SDS011;60641;53.556;9.914;2024-02-14T01:06:01;7.10;;;2.10;;
71606;SDS011;60641;53.556;9.914;2024-02-14T01:08:28;9.00;;;2.10;;
71606;SDS011;60641;53.556;9.914;2024-02-14T01:10:54;8.50;;;2.30;;
71606;SDS011;60641;53.556;9.914;2024-02-14T01:13:21;8.90;;;2.10;;
71606;SDS011;60641;53.556;9.914;2024-02-14T01:15:48;9.40;;;2.30;;
71606;SDS011;60641;53.556;9.914;2024-02-14T01:18:14;9.30;;;2.60;;
71606;SDS011;60641;53.556;9.914;2024-02-14T01:20:41;7.20;;;2.20;;
71606;SDS011;60641;53.556;9.914;2024-02-14T01:23:07;7.30;;;2.20;;
71606;SDS011;60641;53.556;9.914;2024-02-14T01:25:34;7.80;;;2.10;;
71606;SDS011;60641;53.556;9.914;2024-02-14T01:28:00;6.60;;;2.20;;
71606;SDS011;60641;53.556;9.914;2024-02-14T01:30:27;8.30;;;2.20;;
71606;SDS011;60641;53.556;9.914;2024-02-14T01:32:53;9.20;;;2.50;;
71606;SDS011;60641;53.556;9.914;2024-02-14T01:35:20;8.20;;;2.20;;
71606;SDS011;60641;53.556;9.914;2024-02-14T01:37:46;8.90;;;2.00;;
71606;SDS011;60641;53.556;9.914;2024-02-14T01:40:13;7.70;;;2.10;;
71606;SDS011;60641;53.556;9.914;2024-02-14T01:42:39;8.60;;;2.30;;
71606;SDS011;60641;53.556;9.914;2024-02-14T01:45:06;7.60;;;2.30;;
71606;SDS011;60641;53.556;9.914;2024-02-14T01:47:33;8.60;;;2.30;;
71606;SDS011;60641;53.556;9.914;2024-02-14T01:50:00;6.90;;;2.30;;
71606;SDS011;60641;53.556;9.914;2024-02-14T01:52:27;8.30;;;2.50;;
71606;SDS011;60641;53.556;9.914;2024-02-14T01:54:53;6.80;;;2.30;;
71606;SDS011;60641;53.556;9.914;2024-02-14T01:57:21;7.30;;;2.00;;
71606;SDS011;60641;53.556;9.914;2024-02-14T01:59:48;7.10;;;2.30;;
71606;SDS011;60641;53.556;9.914;2024-02-14T02:02:16;8.00;;;2.00;;
71606;SDS011;60641;53.556;9.914;2024-02-14T02:04:42;7.30;;;2.30;;
71606;SDS011;60641;53.556;9.914;2024-02-14T02:07:09;7.70;;;2.30;;
71606;SDS011;60641;53.556;9.914;2024-02-14T02:09:35;8.00;;;2.30;;
71606;SDS011;60641;53.556;9.914;2024-02-14T02:12:02;8.60;;;2.10;;
71606;SDS011;60641;53.556;9.914;2024-02-14T02:14:31;7.30;;;2.30;;
71606;SDS011;60641;53.556;9.914;2024-02-14T02:16:57;5.30;;;2.00;;
71606;SDS011;60641;53.556;9.914;2024-02-14T02:19:24;6.00;;;2.30;;
71606;SDS011;60641;53.556;9.914;2024-02-14T02:21:50;6.70;;;2.00;;
71606;SDS011;60641;53.556;9.914;2024-02-14T02:24:18;6.60;;;2.20;;
71606;SDS011;60641;53.556;9.914;2024-02-14T02:26:44;5.50;;;2.00;;
71606;SDS011;60641;53.556;9.914;2024-02-14T02:29:11;7.00;;;2.00;;
71606;SDS011;60641;53.556;9.914;2024-02-14T02:31:37;7.50;;;2.10;;
71606;SDS011;60641;53.556;9.914;2024-02-14T02:34:04;9.10;;;2.20;;
71606;SDS011;60641;53.556;9.914;2024-02-14T02:36:31;7.40;;;1.90;;
71606;SDS011;60641;53.556;9.914;2024-02-14T02:38:57;5.80;;;1.90;;
71606;SDS011;60641;53.556;9.914;2024-02-14T02:41:24;6.80;;;1.90;;
71606;SDS011;60641;53.556;9.914;2024-02-14T02:43:50;8.00;;;2.00;;
71606;SDS011;60641;53.556;9.914;2024-02-14T02:46:17;6.80;;;1.90;;
71606;SDS011;60641;53.556;9.914;2024-02-14T02:48:43;9.50;;;2.10;;
71606;SDS011;60641;53.556;9.914;2024-02-14T02:51:10;4.80;;;1.60;;
71606;SDS011;60641;53.556;9.914;2024-02-14T02:53:36;8.10;;;1.70;;
71606;SDS011;60641;53.556;9.914;2024-02-14T02:56:04;6.20;;;1.80;;
71606;SDS011;60641;53.556;9.914;2024-02-14T02:58:31;6.60;;;2.20;;
71606;SDS011;60641;53.556;9.914;2024-02-14T03:00:59;6.20;;;1.90;;
71606;SDS011;60641;53.556;9.914;2024-02-14T03:03:25;5.20;;;1.80;;
71606;SDS011;60641;53.556;9.914;2024-02-14T03:05:54;6.40;;;2.20;;
71606;SDS011;60641;53.556;9.914;2024-02-14T03:08:23;13.00;;;2.30;;
71606;SDS011;60641;53.556;9.914;2024-02-14T03:10:51;5.60;;;1.80;;
71606;SDS011;60641;53.556;9.914;2024-02-14T03:13:18;6.90;;;2.10;;
71606;SDS011;60641;53.556;9.914;2024-02-14T03:15:46;7.80;;;1.90;;
71606;SDS011;60641;53.556;9.914;2024-02-14T03:18:12;5.90;;;2.10;;
71606;SDS011;60641;53.556;9.914;2024-02-14T03:20:39;7.90;;;2.20;;
71606;SDS011;60641;53.556;9.914;2024-02-14T03:23:05;6.90;;;1.90;;
71606;SDS011;60641;53.556;9.914;2024-02-14T03:25:32;5.70;;;1.90;;
71606;SDS011;60641;53.556;9.914;2024-02-14T03:27:59;7.00;;;2.20;;
71606;SDS011;60641;53.556;9.914;2024-02-14T03:30:25;8.40;;;2.30;;
71606;SDS011;60641;53.556;9.914;2024-02-14T03:32:52;9.00;;;2.60;;
71606;SDS011;60641;53.556;9.914;2024-02-14T03:35:18;7.50;;;2.10;;
71606;SDS011;60641;53.556;9.914;2024-02-14T03:37:47;7.20;;;2.20;;
71606;SDS011;60641;53.556;9.914;2024-02-14T03:40:15;6.90;;;2.50;;
71606;SDS011;60641;53.556;9.914;2024-02-14T03:42:42;6.80;;;2.10;;
71606;SDS011;60641;53.556;9.914;2024-02-14T03:45:08;9.10;;;2.20;;
71606;SDS011;60641;53.556;9.914;2024-02-14T03:47:36;8.30;;;2.20;;
71606;SDS011;60641;53.556;9.914;2024-02-14T03:50:06;6.30;;;2.00;;
71606;SDS011;60641;53.556;9.914;2024-02-14T03:52:33;8.00;;;2.30;;
71606;SDS011;60641;53.556;9.914;2024-02-14T03:55:00;8.30;;;2.20;;
71606;SDS011;60641;53.556;9.914;2024-02-14T03:57:26;7.00;;;2.10;;
71606;SDS011;60641;53.556;9.914;2024-02-14T03:59:57;9.20;;;2.30;;
71606;SDS011;60641;53.556;9.914;2024-02-14T04:02:27;6.60;;;2.00;;
71606;SDS011;60641;53.556;9.914;2024-02-14T04:04:54;7.10;;;2.10;;
71606;SDS011;60641;53.556;9.914;2024-02-14T04:07:21;8.10;;;2.30;;
71606;SDS011;60641;53.556;9.914;2024-02-14T04:09:48;6.80;;;2.30;;
71606;SDS011;60641;53.556;9.914;2024-02-14T04:12:14;7.30;;;1.90;;
71606;SDS011;60641;53.556;9.914;2024-02-14T04:14:41;6.50;;;1.80;;
71606;SDS011;60641;53.556;9.914;2024-02-14T04:17:07;5.60;;;1.90;;
71606;SDS011;60641;53.556;9.914;2024-02-14T04:19:34;5.70;;;1.80;;
71606;SDS011;60641;53.556;9.914;2024-02-14T04:22:00;7.60;;;2.00;;
71606;SDS011;60641;53.556;9.914;2024-02-14T04:24:27;6.10;;;1.90;;
71606;SDS011;60641;53.556;9.914;2024-02-14T04:26:53;6.80;;;2.20;;
71606;SDS011;60641;53.556;9.914;2024-02-14T04:29:22;5.90;;;2.10;;
71606;SDS011;60641;53.556;9.914;2024-02-14T04:31:49;7.60;;;2.00;;
71606;SDS011;60641;53.556;9.914;2024-02-14T04:34:15;7.50;;;2.10;;
71606;SDS011;60641;53.556;9.914;2024-02-14T04:36:42;7.60;;;1.90;;
71606;SDS011;60641;53.556;9.914;2024-02-14T04:39:08;7.50;;;2.40;;
71606;SDS011;60641;53.556;9.914;2024-02-14T04:41:35;8.30;;;2.20;;
71606;SDS011;60641;53.556;9.914;2024-02-14T04:44:04;9.10;;;2.10;;
71606;SDS011;60641;53.556;9.914;2024-02-14T04:46:32;8.30;;;2.40;;
71606;SDS011;60641;53.556;9.914;2024-02-14T04:49:01;6.90;;;2.50;;
71606;SDS011;60641;53.556;9.914;2024-02-14T04:51:29;7.10;;;2.30;;
71606;SDS011;60641;53.556;9.914;2024-02-14T04:53:57;6.20;;;2.00;;
71606;SDS011;60641;53.556;9.914;2024-02-14T04:56:27;7.20;;;2.20;;
71606;SDS011;60641;53.556;9.914;2024-02-14T04:58:54;7.10;;;2.40;;
71606;SDS011;60641;53.556;9.914;2024-02-14T05:01:21;6.50;;;2.40;;
71606;SDS011;60641;53.556;9.914;2024-02-14T05:03:48;7.60;;;2.30;;
71606;SDS011;60641;53.556;9.914;2024-02-14T05:06:16;6.40;;;2.40;;
71606;SDS011;60641;53.556;9.914;2024-02-14T05:08:42;8.40;;;2.30;;
71606;SDS011;60641;53.556;9.914;2024-02-14T05:11:09;9.10;;;2.60;;
71606;SDS011;60641;53.556;9.914;2024-02-14T05:13:35;7.50;;;2.20;;
71606;SDS011;60641;53.556;9.914;2024-02-14T05:16:04;8.50;;;2.60;;
71606;SDS011;60641;53.556;9.914;2024-02-14T05:18:32;6.70;;;2.50;;
71606;SDS011;60641;53.556;9.914;2024-02-14T05:20:58;6.90;;;2.60;;
71606;SDS011;60641;53.556;9.914;2024-02-14T05:23:25;7.70;;;2.60;;
71606;SDS011;60641;53.556;9.914;2024-02-14T05:25:52;6.30;;;2.40;;
71606;SDS011;60641;53.556;9.914;2024-02-14T05:28:19;9.30;;;2.70;;
71606;SDS011;60641;53.556;9.914;2024-02-14T05:30:47;7.70;;;2.60;;
71606;SDS011;60641;53.556;9.914;2024-02-14T05:33:13;6.70;;;2.70;;
71606;SDS011;60641;53.556;9.914;2024-02-14T05:35:40;7.60;;;2.60;;
71606;SDS011;60641;53.556;9.914;2024-02-14T05:38:06;5.90;;;2.50;;
71606;SDS011;60641;53.556;9.914;2024-02-14T05:40:34;6.30;;;2.30;;
71606;SDS011;60641;53.556;9.914;2024-02-14T05:43:04;6.40;;;2.50;;
71606;SDS011;60641;53.556;9.914;2024-02-14T05:45:30;6.50;;;2.40;;
71606;SDS011;60641;53.556;9.914;2024-02-14T05:47:57;6.50;;;2.50;;
71606;SDS011;60641;53.556;9.914;2024-02-14T05:50:23;7.40;;;2.50;;
71606;SDS011;60641;53.556;9.914;2024-02-14T05:52:50;8.70;;;2.50;;
71606;SDS011;60641;53.556;9.914;2024-02-14T05:55:16;5.30;;;2.20;;
71606;SDS011;60641;53.556;9.914;2024-02-14T05:57:47;6.00;;;2.30;;
71606;SDS011;60641;53.556;9.914;2024-02-14T06:00:14;6.20;;;2.40;;
71606;SDS011;60641;53.556;9.914;2024-02-14T06:02:41;5.30;;;2.50;;
71606;SDS011;60641;53.556;9.914;2024-02-14T06:05:08;7.30;;;2.80;;
71606;SDS011;60641;53.556;9.914;2024-02-14T06:07:36;6.00;;;2.30;;
71606;SDS011;60641;53.556;9.914;2024-02-14T06:10:03;6.10;;;2.00;;
71606;SDS011;60641;53.556;9.914;2024-02-14T06:12:29;6.10;;;2.20;;
71606;SDS011;60641;53.556;9.914;2024-02-14T06:14:56;5.90;;;2.20;;
71606;SDS011;60641;53.556;9.914;2024-02-14T06:17:22;7.10;;;2.30;;
71606;SDS011;60641;53.556;9.914;2024-02-14T06:19:49;7.90;;;2.40;;
71606;SDS011;60641;53.556;9.914;2024-02-14T06:22:15;6.40;;;2.50;;
71606;SDS011;60641;53.556;9.914;2024-02-14T06:24:42;9.10;;;2.60;;
71606;SDS011;60641;53.556;9.914;2024-02-14T06:27:08;5.80;;;2.30;;
71606;SDS011;60641;53.556;9.914;2024-02-14T06:29:35;6.30;;;2.60;;
71606;SDS011;60641;53.556;9.914;2024-02-14T06:32:01;5.90;;;2.20;;
71606;SDS011;60641;53.556;9.914;2024-02-14T06:34:28;6.10;;;2.40;;
71606;SDS011;60641;53.556;9.914;2024-02-14T06:36:55;7.30;;;2.20;;
71606;SDS011;60641;53.556;9.914;2024-02-14T06:39:21;8.20;;;2.20;;
71606;SDS011;60641;53.556;9.914;2024-02-14T06:41:48;6.70;;;2.10;;
71606;SDS011;60641;53.556;9.914;2024-02-14T06:44:14;5.90;;;2.10;;
71606;SDS011;60641;53.556;9.914;2024-02-14T06:46:41;7.70;;;2.40;;
71606;SDS011;60641;53.556;9.914;2024-02-14T06:49:08;7.00;;;2.60;;
71606;SDS011;60641;53.556;9.914;2024-02-14T06:51:35;8.10;;;2.00;;
71606;SDS011;60641;53.556;9.914;2024-02-14T06:54:01;6.40;;;2.40;;
71606;SDS011;60641;53.556;9.914;2024-02-14T06:56:29;8.10;;;2.70;;
71606;SDS011;60641;53.556;9.914;2024-02-14T06:58:56;7.30;;;2.40;;
71606;SDS011;60641;53.556;9.914;2024-02-14T07:01:26;7.30;;;2.50;;
71606;SDS011;60641;53.556;9.914;2024-02-14T07:03:53;5.30;;;2.10;;
71606;SDS011;60641;53.556;9.914;2024-02-14T07:06:19;6.60;;;2.40;;
71606;SDS011;60641;53.556;9.914;2024-02-14T07:08:46;9.20;;;2.40;;
71606;SDS011;60641;53.556;9.914;2024-02-14T07:11:14;6.40;;;2.50;;
71606;SDS011;60641;53.556;9.914;2024-02-14T07:13:41;7.40;;;2.70;;
71606;SDS011;60641;53.556;9.914;2024-02-14T07:16:08;6.60;;;2.50;;
71606;SDS011;60641;53.556;9.914;2024-02-14T07:18:34;8.30;;;2.80;;
71606;SDS011;60641;53.556;9.914;2024-02-14T07:21:01;8.10;;;2.80;;
71606;SDS011;60641;53.556;9.914;2024-02-14T07:23:27;8.60;;;2.80;;
71606;SDS011;60641;53.556;9.914;2024-02-14T07:25:54;6.40;;;2.70;;
71606;SDS011;60641;53.556;9.914;2024-02-14T07:28:20;7.30;;;2.60;;
71606;SDS011;60641;53.556;9.914;2024-02-14T07:30:47;7.90;;;2.40;;
71606;SDS011;60641;53.556;9.914;2024-02-14T07:33:13;6.80;;;2.60;;
71606;SDS011;60641;53.556;9.914;2024-02-14T07:35:40;7.60;;;2.90;;
71606;SDS011;60641;53.556;9.914;2024-02-14T07:38:06;7.40;;;2.80;;
71606;SDS011;60641;53.556;9.914;2024-02-14T07:40:33;6.70;;;2.60;;
71606;SDS011;60641;53.556;9.914;2024-02-14T07:43:00;7.20;;;3.20;;
71606;SDS011;60641;53.556;9.914;2024-02-14T07:45:26;6.50;;;2.80;;
71606;SDS011;60641;53.556;9.914;2024-02-14T07:47:53;7.30;;;2.60;;
71606;SDS011;60641;53.556;9.914;2024-02-14T07:50:19;6.90;;;2.70;;
71606;SDS011;60641;53.556;9.914;2024-02-14T07:52:46;7.00;;;2.70;;
71606;SDS011;60641;53.556;9.914;2024-02-14T07:55:13;7.70;;;2.70;;
71606;SDS011;60641;53.556;9.914;2024-02-14T07:57:40;7.70;;;2.70;;
71606;SDS011;60641;53.556;9.914;2024-02-14T08:00:07;6.70;;;2.90;;
71606;SDS011;60641;53.556;9.914;2024-02-14T08:02:35;7.30;;;2.90;;
71606;SDS011;60641;53.556;9.914;2024-02-14T08:05:02;8.10;;;2.80;;
71606;SDS011;60641;53.556;9.914;2024-02-14T08:07:30;7.90;;;3.10;;
71606;SDS011;60641;53.556;9.914;2024-02-14T08:09:57;8.00;;;3.60;;
71606;SDS011;60641;53.556;9.914;2024-02-14T08:12:24;8.00;;;3.40;;
71606;SDS011;60641;53.556;9.914;2024-02-14T08:14:52;6.80;;;3.00;;
71606;SDS011;60641;53.556;9.914;2024-02-14T08:17:18;8.50;;;3.10;;
71606;SDS011;60641;53.556;9.914;2024-02-14T08:19:45;8.40;;;3.00;;
71606;SDS011;60641;53.556;9.914;2024-02-14T08:22:11;8.30;;;3.40;;
71606;SDS011;60641;53.556;9.914;2024-02-14T08:24:38;7.10;;;3.00;;
71606;SDS011;60641;53.556;9.914;2024-02-14T08:27:05;7.50;;;3.40;;
71606;SDS011;60641;53.556;9.914;2024-02-14T08:29:33;7.00;;;3.10;;
71606;SDS011;60641;53.556;9.914;2024-02-14T08:31:59;8.30;;;3.00;;
71606;SDS011;60641;53.556;9.914;2024-02-14T08:34:25;10.00;;;2.90;;
71606;SDS011;60641;53.556;9.914;2024-02-14T08:36:52;7.30;;;2.90;;
71606;SDS011;60641;53.556;9.914;2024-02-14T08:39:19;7.40;;;2.70;;
71606;SDS011;60641;53.556;9.914;2024-02-14T08:41:46;8.10;;;2.80;;
71606;SDS011;60641;53.556;9.914;2024-02-14T08:44:13;6.00;;;2.50;;
71606;SDS011;60641;53.556;9.914;2024-02-14T08:46:40;6.80;;;2.70;;
71606;SDS011;60641;53.556;9.914;2024-02-14T08:49:08;6.50;;;2.60;;
71606;SDS011;60641;53.556;9.914;2024-02-14T08:51:35;7.90;;;3.00;;
71606;SDS011;60641;53.556;9.914;2024-02-14T08:54:03;7.40;;;3.00;;
71606;SDS011;60641;53.556;9.914;2024-02-14T08:56:32;8.10;;;2.90;;
71606;SDS011;60641;53.556;9.914;2024-02-14T08:59:02;8.00;;;2.30;;
71606;SDS011;60641;53.556;9.914;2024-02-14T09:01:30;6.50;;;2.50;;
71606;SDS011;60641;53.556;9.914;2024-02-14T09:03:57;5.80;;;2.00;;
71606;SDS011;60641;53.556;9.914;2024-02-14T09:06:25;5.10;;;1.70;;
71606;SDS011;60641;53.556;9.914;2024-02-14T09:08:54;5.20;;;1.70;;
71606;SDS011;60641;53.556;9.914;2024-02-14T09:11:21;4.00;;;1.60;;
71606;SDS011;60641;53.556;9.914;2024-02-14T09:13:49;4.50;;;1.50;;
71606;SDS011;60641;53.556;9.914;2024-02-14T09:16:19;4.10;;;1.50;;
71606;SDS011;60641;53.556;9.914;2024-02-14T09:18:48;3.90;;;1.30;;
71606;SDS011;60641;53.556;9.914;2024-02-14T09:21:14;4.40;;;1.60;;
71606;SDS011;60641;53.556;9.914;2024-02-14T09:23:41;3.30;;;1.50;;
71606;SDS011;60641;53.556;9.914;2024-02-14T09:26:08;4.00;;;1.60;;
71606;SDS011;60641;53.556;9.914;2024-02-14T09:28:35;4.20;;;1.40;;
71606;SDS011;60641;53.556;9.914;2024-02-14T09:31:02;3.90;;;1.40;;
71606;SDS011;60641;53.556;9.914;2024-02-14T09:33:30;3.70;;;1.50;;
71606;SDS011;60641;53.556;9.914;2024-02-14T09:35:56;3.50;;;1.30;;
71606;SDS011;60641;53.556;9.914;2024-02-14T09:38:23;3.90;;;1.50;;
71606;SDS011;60641;53.556;9.914;2024-02-14T09:40:58;3.50;;;1.30;;
71606;SDS011;60641;53.556;9.914;2024-02-14T09:43:43;3.30;;;1.40;;
71606;SDS011;60641;53.556;9.914;2024-02-14T09:46:13;4.70;;;1.60;;
71606;SDS011;60641;53.556;9.914;2024-02-14T09:48:43;2.80;;;1.30;;
71606;SDS011;60641;53.556;9.914;2024-02-14T09:51:10;4.70;;;1.50;;
71606;SDS011;60641;53.556;9.914;2024-02-14T09:53:38;3.00;;;1.40;;
71606;SDS011;60641;53.556;9.914;2024-02-14T09:56:05;3.00;;;1.60;;
71606;SDS011;60641;53.556;9.914;2024-02-14T09:58:32;5.80;;;1.90;;
71606;SDS011;60641;53.556;9.914;2024-02-14T10:01:00;3.90;;;1.50;;
71606;SDS011;60641;53.556;9.914;2024-02-14T10:03:27;3.30;;;1.60;;
71606;SDS011;60641;53.556;9.914;2024-02-14T10:05:54;4.10;;;1.60;;
71606;SDS011;60641;53.556;9.914;2024-02-14T10:08:20;3.90;;;1.80;;
71606;SDS011;60641;53.556;9.914;2024-02-14T10:10:48;4.50;;;2.00;;
71606;SDS011;60641;53.556;9.914;2024-02-14T10:13:16;5.10;;;1.80;;
71606;SDS011;60641;53.556;9.914;2024-02-14T10:15:42;5.00;;;2.00;;
71606;SDS011;60641;53.556;9.914;2024-02-14T10:18:09;3.50;;;1.70;;
71606;SDS011;60641;53.556;9.914;2024-02-14T10:20:35;3.60;;;1.50;;
71606;SDS011;60641;53.556;9.914;2024-02-14T10:23:07;3.50;;;1.50;;
71606;SDS011;60641;53.556;9.914;2024-02-14T10:25:37;3.70;;;1.70;;
71606;SDS011;60641;53.556;9.914;2024-02-14T10:28:04;4.40;;;1.70;;
71606;SDS011;60641;53.556;9.914;2024-02-14T10:30:35;3.10;;;1.20;;
71606;SDS011;60641;53.556;9.914;2024-02-14T10:33:04;4.90;;;1.80;;
71606;SDS011;60641;53.556;9.914;2024-02-14T10:35:30;7.20;;;2.20;;
71606;SDS011;60641;53.556;9.914;2024-02-14T10:37:59;4.10;;;1.60;;
71606;SDS011;60641;53.556;9.914;2024-02-14T10:40:27;5.50;;;2.40;;
71606;SDS011;60641;53.556;9.914;2024-02-14T10:42:55;4.40;;;1.60;;
71606;SDS011;60641;53.556;9.914;2024-02-14T10:45:25;6.70;;;1.70;;
71606;SDS011;60641;53.556;9.914;2024-02-14T10:47:52;4.80;;;1.70;;
71606;SDS011;60641;53.556;9.914;2024-02-14T10:50:21;3.70;;;1.60;;
71606;SDS011;60641;53.556;9.914;2024-02-14T10:52:48;3.10;;;1.40;;
71606;SDS011;60641;53.556;9.914;2024-02-14T10:55:15;3.40;;;1.50;;
71606;SDS011;60641;53.556;9.914;2024-02-14T10:57:45;3.30;;;1.10;;
71606;SDS011;60641;53.556;9.914;2024-02-14T11:00:14;5.40;;;1.60;;
71606;SDS011;60641;53.556;9.914;2024-02-14T11:02:41;3.30;;;1.30;;
71606;SDS011;60641;53.556;9.914;2024-02-14T11:05:12;3.00;;;1.40;;
71606;SDS011;60641;53.556;9.914;2024-02-14T11:07:47;3.90;;;1.60;;
71606;SDS011;60641;53.556;9.914;2024-02-14T11:10:15;3.40;;;1.50;;
71606;SDS011;60641;53.556;9.914;2024-02-14T11:12:42;3.40;;;1.40;;
71606;SDS011;60641;53.556;9.914;2024-02-14T11:15:11;3.40;;;1.60;;
71606;SDS011;60641;53.556;9.914;2024-02-14T11:17:48;5.00;;;1.80;;
71606;SDS011;60641;53.556;9.914;2024-02-14T11:20:19;4.00;;;1.50;;
71606;SDS011;60641;53.556;9.914;2024-02-14T11:22:54;4.80;;;1.60;;
71606;SDS011;60641;53.556;9.914;2024-02-14T11:25:29;5.10;;;2.00;;
71606;SDS011;60641;53.556;9.914;2024-02-14T11:27:57;5.90;;;2.30;;
71606;SDS011;60641;53.556;9.914;2024-02-14T11:30:31;4.20;;;1.90;;
71606;SDS011;60641;53.556;9.914;2024-02-14T11:33:18;4.30;;;1.80;;
71606;SDS011;60641;53.556;9.914;2024-02-14T11:35:48;4.70;;;1.90;;
71606;SDS011;60641;53.556;9.914;2024-02-14T11:38:19;4.30;;;1.70;;
71606;SDS011;60641;53.556;9.914;2024-02-14T11:40:46;5.60;;;2.20;;
71606;SDS011;60641;53.556;9.914;2024-02-14T11:43:13;4.40;;;1.90;;
71606;SDS011;60641;53.556;9.914;2024-02-14T11:45:41;4.10;;;1.80;;
71606;SDS011;60641;53.556;9.914;2024-02-14T11:48:11;4.10;;;1.90;;
71606;SDS011;60641;53.556;9.914;2024-02-14T11:50:39;3.70;;;1.70;;
71606;SDS011;60641;53.556;9.914;2024-02-14T11:53:07;4.20;;;2.00;;
71606;SDS011;60641;53.556;9.914;2024-02-14T11:55:37;4.90;;;1.70;;
71606;SDS011;60641;53.556;9.914;2024-02-14T11:58:07;3.70;;;1.50;;
71606;SDS011;60641;53.556;9.914;2024-02-14T12:00:37;4.20;;;2.00;;
71606;SDS011;60641;53.556;9.914;2024-02-14T12:03:07;4.30;;;1.90;;
71606;SDS011;60641;53.556;9.914;2024-02-14T12:05:36;6.20;;;2.50;;
71606;SDS011;60641;53.556;9.914;2024-02-14T12:08:06;7.10;;;3.00;;
71606;SDS011;60641;53.556;9.914;2024-02-14T12:10:34;5.30;;;1.70;;
71606;SDS011;60641;53.556;9.914;2024-02-14T12:13:11;4.20;;;1.50;;
71606;SDS011;60641;53.556;9.914;2024-02-14T12:15:40;4.30;;;1.90;;
71606;SDS011;60641;53.556;9.914;2024-02-14T12:18:08;4.20;;;1.80;;
71606;SDS011;60641;53.556;9.914;2024-02-14T12:20:38;4.50;;;1.70;;
71606;SDS011;60641;53.556;9.914;2024-02-14T12:23:04;5.30;;;2.10;;
71606;SDS011;60641;53.556;9.914;2024-02-14T12:25:31;5.40;;;2.30;;
71606;SDS011;60641;53.556;9.914;2024-02-14T12:27:59;4.50;;;2.00;;
71606;SDS011;60641;53.556;9.914;2024-02-14T12:30:42;4.40;;;2.30;;
71606;SDS011;60641;53.556;9.914;2024-02-14T12:33:13;5.20;;;2.40;;
71606;SDS011;60641;53.556;9.914;2024-02-14T12:35:46;4.90;;;2.20;;
71606;SDS011;60641;53.556;9.914;2024-02-14T12:38:14;5.20;;;2.40;;
71606;SDS011;60641;53.556;9.914;2024-02-14T12:40:42;5.80;;;2.50;;
71606;SDS011;60641;53.556;9.914;2024-02-14T12:43:10;5.90;;;3.00;;
71606;SDS011;60641;53.556;9.914;2024-02-14T12:45:37;6.80;;;3.10;;
71606;SDS011;60641;53.556;9.914;2024-02-14T12:48:05;6.40;;;3.00;;
71606;SDS011;60641;53.556;9.914;2024-02-14T12:50:32;6.30;;;3.10;;
71606;SDS011;60641;53.556;9.914;2024-02-14T12:52:59;7.90;;;3.60;;
71606;SDS011;60641;53.556;9.914;2024-02-14T12:55:25;6.60;;;3.70;;
71606;SDS011;60641;53.556;9.914;2024-02-14T12:57:55;7.10;;;4.00;;
71606;SDS011;60641;53.556;9.914;2024-02-14T13:00:23;7.00;;;3.70;;
71606;SDS011;60641;53.556;9.914;2024-02-14T13:02:50;7.50;;;3.80;;
71606;SDS011;60641;53.556;9.914;2024-02-14T13:05:17;7.00;;;4.00;;
71606;SDS011;60641;53.556;9.914;2024-02-14T13:07:47;7.10;;;3.80;;
71606;SDS011;60641;53.556;9.914;2024-02-14T13:10:14;8.20;;;3.90;;
71606;SDS011;60641;53.556;9.914;2024-02-14T13:12:40;7.30;;;3.70;;
71606;SDS011;60641;53.556;9.914;2024-02-14T13:15:09;7.20;;;3.70;;
71606;SDS011;60641;53.556;9.914;2024-02-14T13:17:36;6.80;;;3.60;;
71606;SDS011;60641;53.556;9.914;2024-02-14T13:20:05;7.40;;;3.80;;
71606;SDS011;60641;53.556;9.914;2024-02-14T13:22:33;7.10;;;3.50;;
71606;SDS011;60641;53.556;9.914;2024-02-14T13:25:02;8.40;;;3.80;;
71606;SDS011;60641;53.556;9.914;2024-02-14T13:27:29;6.10;;;3.00;;
71606;SDS011;60641;53.556;9.914;2024-02-14T13:29:55;7.00;;;3.40;;
71606;SDS011;60641;53.556;9.914;2024-02-14T13:32:22;6.80;;;3.30;;
71606;SDS011;60641;53.556;9.914;2024-02-14T13:34:48;6.90;;;3.10;;
71606;SDS011;60641;53.556;9.914;2024-02-14T13:37:15;5.60;;;2.70;;
71606;SDS011;60641;53.556;9.914;2024-02-14T13:39:43;6.80;;;3.10;;
71606;SDS011;60641;53.556;9.914;2024-02-14T13:42:10;7.10;;;3.20;;
71606;SDS011;60641;53.556;9.914;2024-02-14T13:44:39;6.80;;;3.30;;
71606;SDS011;60641;53.556;9.914;2024-02-14T13:47:08;7.30;;;3.50;;
71606;SDS011;60641;53.556;9.914;2024-02-14T13:49:35;6.90;;;3.20;;
71606;SDS011;60641;53.556;9.914;2024-02-14T13:52:04;6.90;;;2.90;;
71606;SDS011;60641;53.556;9.914;2024-02-14T13:54:30;6.60;;;3.30;;
71606;SDS011;60641;53.556;9.914;2024-02-14T13:56:57;6.40;;;3.20;;
71606;SDS011;60641;53.556;9.914;2024-02-14T13:59:23;6.40;;;2.90;;
71606;SDS011;60641;53.556;9.914;2024-02-14T14:01:50;8.10;;;3.00;;
71606;SDS011;60641;53.556;9.914;2024-02-14T14:04:16;7.50;;;3.40;;
71606;SDS011;60641;53.556;9.914;2024-02-14T14:06:43;7.50;;;3.00;;
71606;SDS011;60641;53.556;9.914;2024-02-14T14:09:15;6.60;;;3.10;;
71606;SDS011;60641;53.556;9.914;2024-02-14T14:11:45;7.70;;;3.10;;
71606;SDS011;60641;53.556;9.914;2024-02-14T14:14:18;6.90;;;3.30;;
71606;SDS011;60641;53.556;9.914;2024-02-14T14:16:45;6.40;;;3.00;;
71606;SDS011;60641;53.556;9.914;2024-02-14T14:19:14;6.20;;;3.10;;
71606;SDS011;60641;53.556;9.914;2024-02-14T14:21:40;6.80;;;3.00;;
71606;SDS011;60641;53.556;9.914;2024-02-14T14:24:08;6.70;;;3.00;;
71606;SDS011;60641;53.556;9.914;2024-02-14T14:26:34;7.00;;;3.00;;
71606;SDS011;60641;53.556;9.914;2024-02-14T14:29:01;6.50;;;3.10;;
71606;SDS011;60641;53.556;9.914;2024-02-14T14:31:28;7.90;;;3.90;;
71606;SDS011;60641;53.556;9.914;2024-02-14T14:33:55;6.50;;;2.90;;
71606;SDS011;60641;53.556;9.914;2024-02-14T14:36:23;6.50;;;2.80;;
71606;SDS011;60641;53.556;9.914;2024-02-14T14:38:52;5.90;;;2.80;;
71606;SDS011;60641;53.556;9.914;2024-02-14T14:41:22;6.50;;;3.00;;
71606;SDS011;60641;53.556;9.914;2024-02-14T14:43:49;6.60;;;3.20;;
71606;SDS011;60641;53.556;9.914;2024-02-14T14:46:16;7.40;;;3.20;;
71606;SDS011;60641;53.556;9.914;2024-02-14T14:48:42;6.40;;;3.00;;
71606;SDS011;60641;53.556;9.914;2024-02-14T14:51:09;6.90;;;3.20;;